Time;durP1;ratioP1;P1;durP2;ratioP2;P2;SDS_P1;SDS_P2;PMS_P1;PMS_P2;Temp;Humidity;BMP_temperature;BMP_pressure;BME280_temperature;BME280_humidity;BME280_pressure;Samples;Min_cycle;Max_cycle;Signal;HPM_P1;HPM_P2
2022/08/01 00:01:12;;;;;;;6.22;4.80;;;20.90;82.00;;;;;;4999566;28;20389;-66
2022/08/01 00:03:38;;;;;;;7.38;4.95;;;20.90;82.00;;;;;;4999565;28;20029;-66
2022/08/01 00:06:03;;;;;;;7.80;5.07;;;21.00;82.00;;;;;;5000957;28;20084;-66
2022/08/01 00:08:29;;;;;;;6.38;4.32;;;21.00;81.90;;;;;;5001494;28;20118;-66
2022/08/01 00:10:54;;;;;;;5.55;4.45;;;21.00;81.80;;;;;;5001586;28;20108;-66
2022/08/01 00:13:20;;;;;;;6.93;5.18;;;21.00;81.80;;;;;;5000333;28;20026;-66
2022/08/01 00:15:45;;;;;;;6.35;4.97;;;21.00;81.80;;;;;;4998701;28;20106;-66
2022/08/01 00:18:11;;;;;;;6.25;4.45;;;20.90;81.90;;;;;;5001249;28;20097;-66
2022/08/01 00:20:36;;;;;;;6.57;5.18;;;21.00;81.90;;;;;;5002940;28;20477;-66
2022/08/01 00:23:03;;;;;;;6.57;4.78;;;20.90;81.90;;;;;;5002697;28;20026;-66
2022/08/01 00:25:28;;;;;;;5.70;4.68;;;20.90;81.90;;;;;;4996783;28;20085;-67
2022/08/01 00:27:54;;;;;;;6.75;5.20;;;20.90;81.90;;;;;;5000427;28;20038;-67
2022/08/01 00:30:19;;;;;;;7.65;5.00;;;20.90;81.90;;;;;;4998970;28;20080;-67
2022/08/01 00:32:45;;;;;;;6.45;4.47;;;20.90;81.80;;;;;;4999568;28;20088;-67
2022/08/01 00:35:10;;;;;;;7.50;4.85;;;20.90;81.90;;;;;;4999713;28;20013;-67
2022/08/01 00:37:36;;;;;;;6.38;4.72;;;20.90;81.80;;;;;;4993890;28;20026;-68
2022/08/01 00:40:02;;;;;;;5.97;4.88;;;20.90;81.70;;;;;;4999171;28;20038;-67
2022/08/01 00:42:28;;;;;;;6.05;4.93;;;21.00;81.70;;;;;;5002550;28;20087;-68
2022/08/01 00:44:53;;;;;;;5.70;4.80;;;21.00;81.60;;;;;;5002508;28;20483;-67
2022/08/01 00:47:19;;;;;;;5.82;4.60;;;21.00;81.50;;;;;;5008729;28;20063;-67
2022/08/01 00:49:45;;;;;;;7.07;4.70;;;21.00;81.40;;;;;;5000328;28;20123;-68
2022/08/01 00:52:10;;;;;;;5.97;4.32;;;21.00;81.30;;;;;;4999473;28;20118;-67
2022/08/01 00:54:36;;;;;;;6.35;4.85;;;21.00;81.20;;;;;;5004285;28;20062;-69
2022/08/01 00:57:03;;;;;;;6.63;5.65;;;21.00;81.20;;;;;;4997955;28;20069;-68
2022/08/01 00:59:28;;;;;;;6.22;4.93;;;21.00;81.20;;;;;;4992981;28;20026;-68
2022/08/01 01:01:54;;;;;;;6.43;4.40;;;21.00;81.30;;;;;;4997165;28;20393;-68
2022/08/01 01:04:20;;;;;;;5.72;4.97;;;21.00;81.30;;;;;;5002648;28;20495;-67
2022/08/01 01:07:03;;;;;;;7.00;5.38;;;21.00;81.30;;;;;;4997742;28;20033;-67
2022/08/01 01:09:38;;;;;;;7.13;5.30;;;21.00;81.40;;;;;;5006397;28;20166;-67
2022/08/01 01:12:22;;;;;;;5.97;4.85;;;21.00;81.30;;;;;;4990548;28;20026;-68
2022/08/01 01:14:50;;;;;;;6.38;4.85;;;20.90;81.10;;;;;;4999150;28;20522;-68
2022/08/01 01:17:21;;;;;;;6.93;5.45;;;20.90;81.20;;;;;;5000577;28;20026;-66
2022/08/01 01:19:51;;;;;;;7.57;6.10;;;21.00;81.20;;;;;;4994159;28;20037;-66
2022/08/01 01:22:40;;;;;;;6.32;4.97;;;20.90;81.10;;;;;;4991856;28;20037;-66
2022/08/01 01:25:16;;;;;;;7.00;5.28;;;20.90;81.10;;;;;;4998853;28;20088;-67
2022/08/01 01:27:51;;;;;;;5.63;5.03;;;20.90;81.20;;;;;;4994843;28;20694;-67
2022/08/01 01:30:17;;;;;;;6.35;4.75;;;20.90;81.20;;;;;;5004554;28;20046;-66
2022/08/01 01:32:46;;;;;;;7.32;5.38;;;20.90;81.00;;;;;;4990514;28;20018;-66
2022/08/01 01:35:25;;;;;;;5.70;4.85;;;20.90;81.00;;;;;;4990636;28;20105;-66
2022/08/01 01:37:57;;;;;;;6.53;5.38;;;20.90;80.90;;;;;;5004012;28;20032;-66
2022/08/01 01:40:24;;;;;;;6.28;5.20;;;20.90;81.00;;;;;;4991962;28;20062;-66
2022/08/01 01:42:51;;;;;;;6.72;5.45;;;20.90;81.00;;;;;;4990901;28;20037;-66
2022/08/01 01:45:18;;;;;;;5.88;4.30;;;20.80;81.10;;;;;;4993466;28;20041;-66
2022/08/01 01:47:45;;;;;;;6.05;4.88;;;20.80;81.20;;;;;;4995570;28;20031;-66
2022/08/01 01:50:12;;;;;;;6.35;4.78;;;20.80;81.20;;;;;;5012726;28;20127;-66
2022/08/01 01:52:40;;;;;;;7.32;4.70;;;20.90;81.30;;;;;;5013711;28;20042;-66
2022/08/01 01:55:08;;;;;;;5.72;4.20;;;20.80;81.10;;;;;;5000948;28;20469;-66
2022/08/01 01:57:38;;;;;;;5.22;4.22;;;20.80;81.10;;;;;;5000900;28;20044;-67
2022/08/01 02:00:06;;;;;;;6.38;4.63;;;20.80;81.20;;;;;;5003858;28;20026;-66
2022/08/01 02:02:35;;;;;;;6.95;4.95;;;20.80;81.20;;;;;;5005137;28;20045;-66
2022/08/01 02:05:01;;;;;;;5.95;4.35;;;20.80;81.30;;;;;;5003365;28;20420;-66
2022/08/01 02:07:28;;;;;;;5.85;4.55;;;20.80;81.30;;;;;;4995192;28;20041;-66
2022/08/01 02:09:55;;;;;;;6.05;4.90;;;20.80;81.40;;;;;;4999218;28;20027;-66
2022/08/01 02:12:21;;;;;;;5.85;4.30;;;20.80;81.40;;;;;;5006061;28;20022;-67
2022/08/01 02:14:49;;;;;;;5.05;3.83;;;20.80;81.40;;;;;;5005225;28;20038;-68
2022/08/01 02:17:20;;;;;;;4.85;3.78;;;20.80;81.50;;;;;;4996899;28;20033;-67
2022/08/01 02:19:47;;;;;;;5.73;4.03;;;20.80;81.40;;;;;;4999949;28;20041;-67
2022/08/01 02:22:41;;;;;;;6.07;4.50;;;20.80;81.30;;;;;;4997683;28;20300;-67
2022/08/01 02:25:25;;;;;;;5.55;4.25;;;20.70;81.40;;;;;;4995274;28;20053;-67
2022/08/01 02:28:14;;;;;;;6.97;4.40;;;20.70;81.50;;;;;;5010739;28;20708;-67
2022/08/01 02:30:43;;;;;;;6.68;4.57;;;20.70;81.60;;;;;;4993131;28;20041;-67
2022/08/01 02:33:18;;;;;;;7.22;4.60;;;20.70;82.30;;;;;;5012864;28;20435;-67
2022/08/01 02:35:51;;;;;;;5.75;3.90;;;20.70;81.80;;;;;;5011812;28;20032;-67
2022/08/01 02:38:18;;;;;;;5.30;3.83;;;20.70;81.80;;;;;;5000266;28;20030;-67
2022/08/01 02:40:47;;;;;;;4.95;4.00;;;20.70;81.70;;;;;;4995790;28;20393;-67
2022/08/01 02:43:18;;;;;;;6.18;4.07;;;20.70;81.80;;;;;;4994442;28;20030;-68
2022/08/01 02:45:48;;;;;;;4.38;3.42;;;20.70;81.90;;;;;;5006151;28;20034;-67
2022/08/01 02:48:16;;;;;;;4.65;3.60;;;20.70;81.70;;;;;;5009616;28;20041;-68
2022/08/01 02:50:44;;;;;;;4.53;3.38;;;20.70;81.80;;;;;;4993039;28;20026;-68
2022/08/01 02:53:13;;;;;;;5.25;3.67;;;20.60;81.80;;;;;;4994192;28;20105;-66
2022/08/01 02:55:40;;;;;;;5.40;3.60;;;20.70;81.80;;;;;;5005932;28;20018;-66
2022/08/01 02:58:08;;;;;;;4.68;3.25;;;20.70;81.90;;;;;;4993074;28;20026;-66
2022/08/01 03:00:34;;;;;;;4.38;3.55;;;20.70;82.00;;;;;;5006402;28;20018;-66
2022/08/01 03:03:02;;;;;;;4.15;3.15;;;20.70;82.00;;;;;;4993617;28;20030;-66
2022/08/01 03:05:29;;;;;;;5.10;3.60;;;20.70;82.00;;;;;;4994402;28;20026;-66
2022/08/01 03:07:58;;;;;;;4.82;3.78;;;20.60;81.90;;;;;;4996230;28;20105;-66
2022/08/01 03:10:26;;;;;;;4.57;3.55;;;20.60;82.10;;;;;;5010525;28;20030;-67
2022/08/01 03:12:52;;;;;;;4.22;3.58;;;20.60;82.10;;;;;;4998639;28;20058;-68
2022/08/01 03:15:19;;;;;;;3.95;3.10;;;20.60;82.20;;;;;;5000359;28;20385;-69
2022/08/01 03:17:47;;;;;;;2.97;2.50;;;20.60;82.30;;;;;;4993714;28;20030;-67
2022/08/01 03:20:14;;;;;;;2.50;2.15;;;20.60;82.30;;;;;;4993951;28;20022;-68
2022/08/01 03:22:43;;;;;;;2.22;1.85;;;20.50;82.20;;;;;;5000848;28;20512;-68
2022/08/01 03:25:10;;;;;;;2.70;2.05;;;20.50;82.30;;;;;;5011865;28;20022;-68
2022/08/01 03:27:37;;;;;;;2.25;1.73;;;20.50;82.30;;;;;;5006706;28;20050;-67
2022/08/01 03:30:05;;;;;;;2.15;1.55;;;20.50;82.20;;;;;;4996041;28;20105;-66
2022/08/01 03:32:31;;;;;;;2.65;1.77;;;20.50;82.30;;;;;;5000532;28;20034;-67
2022/08/01 03:34:57;;;;;;;2.30;1.65;;;20.50;82.20;;;;;;5011256;28;20075;-66
2022/08/01 03:37:25;;;;;;;2.20;1.60;;;20.50;82.20;;;;;;4999795;28;20042;-66
2022/08/01 03:39:57;;;;;;;1.63;1.40;;;20.50;82.30;;;;;;5003957;28;20598;-66
2022/08/01 03:42:41;;;;;;;2.08;1.60;;;20.50;82.30;;;;;;4997658;28;20390;-66
2022/08/01 03:45:11;;;;;;;2.00;1.35;;;20.50;82.30;;;;;;5011737;28;20059;-67
2022/08/01 03:47:37;;;;;;;2.17;1.60;;;20.50;82.20;;;;;;5001891;28;20523;-68
2022/08/01 03:50:05;;;;;;;3.40;2.00;;;20.50;82.20;;;;;;5005969;28;20413;-67
2022/08/01 03:52:34;;;;;;;2.03;1.60;;;20.60;82.10;;;;;;4996089;28;20072;-67
2022/08/01 03:55:06;;;;;;;2.25;1.52;;;20.50;82.10;;;;;;4998362;28;20027;-67
2022/08/01 03:57:33;;;;;;;1.83;1.70;;;20.50;82.10;;;;;;4998862;28;20029;-66
2022/08/01 03:59:59;;;;;;;1.95;1.58;;;20.50;82.10;;;;;;5007001;28;20026;-66
2022/08/01 04:02:27;;;;;;;1.70;1.58;;;20.50;82.20;;;;;;4998923;28;20689;-66
2022/08/01 04:04:53;;;;;;;2.35;1.75;;;20.50;82.20;;;;;;4993658;28;20493;-66
2022/08/01 04:07:30;;;;;;;2.60;2.10;;;20.50;82.20;;;;;;4994359;28;20447;-66
2022/08/01 04:09:56;;;;;;;2.45;1.83;;;20.50;82.20;;;;;;4995784;28;20069;-67
2022/08/01 04:12:22;;;;;;;2.45;1.92;;;20.50;82.20;;;;;;5006589;28;20076;-66
2022/08/01 04:14:48;;;;;;;1.90;1.65;;;20.50;82.20;;;;;;4991659;28;20026;-66
2022/08/01 04:17:17;;;;;;;3.10;2.20;;;20.50;82.20;;;;;;4994824;28;20015;-66
2022/08/01 04:19:44;;;;;;;2.10;1.83;;;20.50;82.20;;;;;;4997175;28;20057;-66
2022/08/01 04:22:12;;;;;;;2.33;1.80;;;20.50;82.40;;;;;;4994120;28;20033;-66
2022/08/01 04:24:40;;;;;;;3.05;2.28;;;20.50;82.20;;;;;;5008332;28;20034;-66
2022/08/01 04:27:11;;;;;;;3.15;2.40;;;20.50;82.20;;;;;;5004356;28;20392;-67
2022/08/01 04:29:38;;;;;;;2.50;2.17;;;20.50;82.20;;;;;;5007411;28;20030;-67
2022/08/01 04:32:06;;;;;;;3.35;2.60;;;20.50;82.30;;;;;;5009792;28;20020;-67
2022/08/01 04:34:33;;;;;;;4.40;2.85;;;20.50;82.20;;;;;;5010534;28;20080;-68
2022/08/01 04:37:00;;;;;;;3.05;2.45;;;20.50;82.30;;;;;;5010583;28;20025;-68
2022/08/01 04:39:28;;;;;;;3.33;2.60;;;20.50;82.30;;;;;;5004831;28;20121;-68
2022/08/01 04:41:56;;;;;;;3.28;2.40;;;20.50;82.20;;;;;;5001359;28;20068;-67
2022/08/01 04:44:23;;;;;;;3.35;2.70;;;20.50;82.40;;;;;;4997957;28;20041;-66
2022/08/01 04:46:50;;;;;;;4.32;3.20;;;20.50;82.40;;;;;;5007166;28;20030;-69
2022/08/01 04:49:16;;;;;;;3.53;2.60;;;20.60;82.40;;;;;;4996005;28;20019;-67
2022/08/01 04:51:59;;;;;;;3.85;2.70;;;20.50;82.40;;;;;;4995060;28;20165;-68
2022/08/01 04:54:36;;;;;;;3.22;2.70;;;20.50;82.40;;;;;;5006398;28;20912;-68
2022/08/01 04:57:03;;;;;;;3.55;2.80;;;20.50;82.40;;;;;;5005195;28;20025;-67
2022/08/01 04:59:41;;;;;;;3.40;2.88;;;20.50;82.50;;;;;;5001221;28;20022;-66
2022/08/01 05:02:11;;;;;;;3.55;2.85;;;20.50;82.50;;;;;;5002517;28;20092;-67
2022/08/01 05:04:38;;;;;;;3.60;2.70;;;20.60;82.40;;;;;;4997640;28;20408;-67
2022/08/01 05:07:04;;;;;;;3.47;2.67;;;20.60;82.40;;;;;;4991759;28;20030;-67
2022/08/01 05:09:30;;;;;;;4.07;2.67;;;20.60;82.30;;;;;;4998700;28;20028;-67
2022/08/01 05:11:58;;;;;;;3.55;2.58;;;20.70;82.30;;;;;;5009371;28;20038;-67
2022/08/01 05:14:25;;;;;;;4.10;2.95;;;20.70;82.20;;;;;;5007968;28;20392;-67
2022/08/01 05:16:51;;;;;;;3.13;2.58;;;20.70;82.10;;;;;;5010139;28;20022;-67
2022/08/01 05:19:16;;;;;;;2.97;2.30;;;20.70;82.20;;;;;;5001217;28;20038;-66
2022/08/01 05:21:42;;;;;;;4.20;2.70;;;20.70;82.20;;;;;;5004412;28;20128;-68
2022/08/01 05:24:08;;;;;;;3.08;2.78;;;20.70;82.20;;;;;;5007228;28;20034;-67
2022/08/01 05:26:33;;;;;;;3.13;2.58;;;20.70;82.20;;;;;;4994352;28;20030;-68
2022/08/01 05:28:59;;;;;;;3.38;2.78;;;20.70;82.30;;;;;;4995298;28;20384;-68
2022/08/01 05:31:25;;;;;;;3.13;2.83;;;20.70;82.20;;;;;;4999917;28;20521;-68
2022/08/01 05:33:51;;;;;;;5.18;2.80;;;20.80;82.20;;;;;;5006348;28;20112;-68
2022/08/01 05:36:16;;;;;;;3.63;3.08;;;20.80;82.20;;;;;;5014145;28;20025;-68
2022/08/01 05:38:42;;;;;;;3.85;2.92;;;20.70;82.20;;;;;;5011436;28;20034;-68
2022/08/01 05:41:07;;;;;;;2.83;2.53;;;20.70;82.20;;;;;;5012772;28;20034;-68
2022/08/01 05:43:33;;;;;;;3.10;2.80;;;20.70;82.20;;;;;;5019146;28;20034;-68
2022/08/01 05:45:58;;;;;;;2.38;2.17;;;20.70;82.30;;;;;;5013653;28;20030;-68
2022/08/01 05:48:24;;;;;;;3.80;3.05;;;20.70;82.40;;;;;;5016914;28;20508;-68
2022/08/01 05:50:50;;;;;;;3.83;2.78;;;20.70;82.50;;;;;;4997623;28;20771;-68
2022/08/01 05:53:16;;;;;;;3.55;2.78;;;20.60;82.40;;;;;;5004713;28;20030;-68
2022/08/01 05:55:41;;;;;;;2.40;2.20;;;20.60;82.50;;;;;;5011289;28;20026;-68
2022/08/01 05:58:07;;;;;;;2.25;1.88;;;20.60;82.50;;;;;;5011838;28;20026;-69
2022/08/01 06:00:32;;;;;;;1.88;1.77;;;20.50;82.50;;;;;;5010065;28;20031;-68
2022/08/01 06:02:58;;;;;;;2.13;1.92;;;20.50;82.50;;;;;;5001795;28;20029;-69
2022/08/01 06:05:23;;;;;;;1.50;1.40;;;20.60;82.50;;;;;;5009031;28;20026;-68
2022/08/01 06:07:49;;;;;;;1.70;1.50;;;20.70;82.50;;;;;;5000036;28;20073;-68
2022/08/01 06:10:14;;;;;;;2.05;1.40;;;20.70;82.30;;;;;;5007168;28;20129;-67
2022/08/01 06:12:40;;;;;;;1.42;1.33;;;20.70;82.20;;;;;;5013233;28;20022;-68
2022/08/01 06:15:06;;;;;;;1.30;1.20;;;20.70;82.10;;;;;;5004251;28;20026;-67
2022/08/01 06:17:32;;;;;;;1.20;1.15;;;20.70;82.00;;;;;;5011141;28;20056;-68
2022/08/01 06:19:59;;;;;;;1.90;1.20;;;20.70;82.00;;;;;;5006178;28;20050;-67
2022/08/01 06:22:24;;;;;;;1.23;1.10;;;20.80;82.00;;;;;;5007582;28;20431;-67
2022/08/01 06:24:50;;;;;;;1.17;1.00;;;20.80;82.00;;;;;;5007242;28;20114;-67
2022/08/01 06:27:16;;;;;;;0.90;0.90;;;20.80;82.00;;;;;;5002974;28;20029;-67
2022/08/01 06:29:42;;;;;;;1.05;0.80;;;20.80;81.90;;;;;;5000974;28;20041;-68
2022/08/01 06:32:09;;;;;;;1.08;1.00;;;20.90;81.90;;;;;;5002048;28;20077;-68
2022/08/01 06:34:35;;;;;;;0.93;0.90;;;20.90;81.70;;;;;;5004696;28;20018;-69
2022/08/01 06:37:00;;;;;;;0.70;0.70;;;20.90;81.50;;;;;;5004036;28;20667;-68
2022/08/01 06:39:26;;;;;;;1.23;0.90;;;20.90;81.30;;;;;;5001932;28;20029;-68
2022/08/01 06:41:55;;;;;;;0.95;0.85;;;20.90;81.20;;;;;;5002755;28;20547;-68
2022/08/01 06:44:20;;;;;;;0.70;0.70;;;20.80;81.40;;;;;;5002043;28;20128;-68
2022/08/01 06:46:46;;;;;;;0.80;0.80;;;20.90;81.50;;;;;;4999962;28;20493;-68
2022/08/01 06:49:14;;;;;;;1.13;0.80;;;20.90;81.50;;;;;;5002252;28;20121;-68
2022/08/01 06:51:40;;;;;;;1.10;1.00;;;21.00;81.40;;;;;;5003009;28;20030;-68
2022/08/01 06:54:06;;;;;;;1.52;1.05;;;21.00;81.10;;;;;;5006372;28;20029;-68
2022/08/01 06:56:31;;;;;;;1.42;0.80;;;21.10;81.00;;;;;;5000357;28;20401;-69
2022/08/01 06:59:00;;;;;;;1.00;0.90;;;21.10;80.90;;;;;;5003555;28;20026;-67
2022/08/01 07:01:29;;;;;;;0.95;0.90;;;21.10;80.60;;;;;;5004147;28;20085;-68
2022/08/01 07:03:55;;;;;;;1.00;0.82;;;21.10;80.40;;;;;;5004493;28;20108;-67
2022/08/01 07:06:24;;;;;;;2.05;0.95;;;21.20;80.30;;;;;;5002290;28;20129;-67
2022/08/01 07:08:54;;;;;;;0.70;0.70;;;21.20;80.40;;;;;;4998814;28;20589;-68
2022/08/01 07:11:21;;;;;;;1.48;1.02;;;21.20;80.30;;;;;;5008388;28;20024;-68
2022/08/01 07:13:47;;;;;;;1.35;0.82;;;21.20;80.10;;;;;;5006153;28;20054;-68
2022/08/01 07:16:13;;;;;;;1.10;1.00;;;21.20;80.10;;;;;;5010264;28;20030;-68
2022/08/01 07:18:39;;;;;;;1.35;1.08;;;21.20;80.00;;;;;;5004530;28;20544;-68
2022/08/01 07:21:05;;;;;;;1.75;0.90;;;21.20;79.90;;;;;;5006024;28;20029;-68
2022/08/01 07:23:31;;;;;;;1.08;0.90;;;21.20;79.90;;;;;;5001716;28;20040;-67
2022/08/01 07:25:57;;;;;;;1.05;0.93;;;21.20;79.80;;;;;;5006152;28;20380;-68
2022/08/01 07:28:23;;;;;;;0.75;0.70;;;21.20;79.60;;;;;;5004792;28;20030;-68
2022/08/01 07:30:48;;;;;;;1.50;0.90;;;21.20;80.20;;;;;;5001327;28;20022;-67
2022/08/01 07:33:14;;;;;;;1.00;0.90;;;21.20;79.70;;;;;;5000737;28;20018;-67
2022/08/01 07:35:40;;;;;;;1.00;0.90;;;21.20;79.80;;;;;;5000815;28;20023;-67
2022/08/01 07:38:07;;;;;;;0.95;0.82;;;21.30;79.80;;;;;;5000003;28;20105;-67
2022/08/01 07:40:33;;;;;;;1.08;0.85;;;21.30;79.80;;;;;;5000336;28;21260;-67
2022/08/01 07:42:58;;;;;;;1.10;1.00;;;21.30;79.70;;;;;;4997714;28;20030;-67
2022/08/01 07:45:24;;;;;;;1.27;0.93;;;21.30;79.50;;;;;;5003069;28;20025;-67
2022/08/01 07:47:49;;;;;;;1.20;0.85;;;21.40;79.40;;;;;;5001985;28;20112;-66
2022/08/01 07:50:16;;;;;;;1.00;0.90;;;21.40;79.40;;;;;;5005941;28;20101;-67
2022/08/01 07:52:43;;;;;;;1.10;1.00;;;21.40;79.40;;;;;;5001882;28;20034;-67
2022/08/01 07:55:11;;;;;;;1.02;0.80;;;21.40;79.40;;;;;;5008647;28;20520;-67
2022/08/01 07:57:37;;;;;;;1.65;1.10;;;21.40;79.70;;;;;;5005334;28;20021;-67
2022/08/01 08:00:05;;;;;;;1.52;1.20;;;21.40;79.30;;;;;;5009852;28;20038;-67
2022/08/01 08:02:31;;;;;;;1.48;0.80;;;21.40;79.20;;;;;;5007275;28;20639;-67
2022/08/01 08:04:57;;;;;;;0.90;0.90;;;21.40;79.20;;;;;;5006317;28;20085;-67
2022/08/01 08:07:22;;;;;;;1.48;1.02;;;21.40;79.10;;;;;;5004384;28;20123;-68
2022/08/01 08:09:48;;;;;;;1.13;1.02;;;21.30;79.00;;;;;;5007252;28;20404;-67
2022/08/01 08:12:13;;;;;;;1.33;0.90;;;21.30;79.10;;;;;;5007619;28;20160;-67
2022/08/01 08:14:39;;;;;;;2.17;1.10;;;21.40;79.10;;;;;;5003902;28;20033;-67
2022/08/01 08:17:05;;;;;;;1.55;1.30;;;21.40;78.90;;;;;;5005388;28;20030;-67
2022/08/01 08:19:33;;;;;;;2.90;1.65;;;21.40;78.80;;;;;;5002183;28;20113;-67
2022/08/01 08:21:59;;;;;;;1.90;1.30;;;21.30;78.60;;;;;;5001417;28;20030;-67
2022/08/01 08:24:26;;;;;;;1.38;1.25;;;21.10;78.70;;;;;;5004061;28;20030;-67
2022/08/01 08:26:54;;;;;;;2.05;1.38;;;21.10;79.10;;;;;;5007847;28;20092;-67
2022/08/01 08:29:21;;;;;;;1.30;1.10;;;21.10;79.30;;;;;;5006754;28;20389;-67
2022/08/01 08:31:47;;;;;;;1.23;1.13;;;21.00;79.30;;;;;;5004919;28;20044;-68
2022/08/01 08:34:13;;;;;;;1.63;1.30;;;21.10;79.30;;;;;;5002429;28;20030;-68
2022/08/01 08:36:38;;;;;;;2.15;1.00;;;21.20;79.30;;;;;;5007619;28;20052;-68
2022/08/01 08:39:05;;;;;;;1.73;1.20;;;21.30;79.10;;;;;;5006022;28;20045;-67
2022/08/01 08:41:32;;;;;;;1.40;1.20;;;21.30;78.80;;;;;;5003177;28;20439;-67
2022/08/01 08:43:58;;;;;;;1.45;1.30;;;21.40;78.60;;;;;;5004396;28;20030;-67
2022/08/01 08:46:27;;;;;;;1.10;1.00;;;21.50;78.40;;;;;;5006569;28;20091;-67
2022/08/01 08:48:53;;;;;;;1.40;1.30;;;21.60;77.90;;;;;;5003786;28;20408;-68
2022/08/01 08:51:19;;;;;;;1.77;1.30;;;21.70;77.70;;;;;;5005763;28;20022;-67
2022/08/01 08:53:46;;;;;;;1.80;1.15;;;21.60;77.40;;;;;;5006463;28;20062;-67
2022/08/01 08:56:13;;;;;;;1.80;1.20;;;21.70;77.50;;;;;;5006499;28;20676;-67
2022/08/01 08:58:43;;;;;;;1.83;1.05;;;21.70;77.40;;;;;;5003268;28;20061;-67
2022/08/01 09:01:09;;;;;;;1.50;1.13;;;21.60;77.60;;;;;;5002058;28;20103;-67
2022/08/01 09:03:36;;;;;;;1.40;1.20;;;21.40;77.80;;;;;;5004139;28;20030;-67
2022/08/01 09:06:02;;;;;;;2.08;1.00;;;21.20;78.10;;;;;;5010823;28;20583;-66
2022/08/01 09:08:28;;;;;;;1.25;1.15;;;21.10;78.60;;;;;;5001638;28;20037;-66
2022/08/01 09:10:53;;;;;;;1.48;1.30;;;21.00;78.80;;;;;;5002577;28;20018;-67
2022/08/01 09:13:19;;;;;;;1.65;1.00;;;21.00;79.10;;;;;;5004580;28;20105;-67
2022/08/01 09:15:49;;;;;;;1.67;1.20;;;21.00;79.30;;;;;;5006168;28;20054;-67
2022/08/01 09:18:44;;;;;;;2.72;1.40;;;21.00;79.40;;;;;;5001696;28;20447;-66
2022/08/01 09:21:22;;;;;;;1.80;1.27;;;21.00;79.40;;;;;;5008193;28;20032;-66
2022/08/01 09:23:54;;;;;;;1.40;1.23;;;21.00;79.50;;;;;;5005506;28;20018;-66
2022/08/01 09:26:28;;;;;;;2.17;1.35;;;21.00;79.40;;;;;;5006654;28;20022;-66
2022/08/01 09:28:54;;;;;;;3.22;1.60;;;21.00;79.30;;;;;;5001136;28;20060;-66
2022/08/01 09:31:19;;;;;;;1.88;1.50;;;21.00;79.20;;;;;;5004410;28;20058;-66
2022/08/01 09:33:48;;;;;;;2.05;1.38;;;21.10;79.30;;;;;;5000206;28;20014;-65
2022/08/01 09:36:14;;;;;;;2.83;1.67;;;21.00;79.30;;;;;;5004302;28;20022;-66
2022/08/01 09:38:40;;;;;;;2.20;1.35;;;21.00;79.20;;;;;;5003629;28;20515;-66
2022/08/01 09:41:07;;;;;;;2.30;1.83;;;21.00;79.40;;;;;;5005377;28;20724;-66
2022/08/01 09:43:33;;;;;;;3.33;1.95;;;21.00;79.40;;;;;;5000642;28;20115;-66
2022/08/01 09:46:03;;;;;;;4.63;1.80;;;20.90;79.60;;;;;;5007358;28;20022;-66
2022/08/01 09:48:29;;;;;;;2.47;1.60;;;20.80;79.80;;;;;;5003668;28;20129;-66
2022/08/01 09:50:56;;;;;;;3.85;2.20;;;20.80;80.00;;;;;;5006585;28;20528;-66
2022/08/01 09:53:22;;;;;;;3.92;2.08;;;20.80;80.00;;;;;;5005787;28;20485;-66
2022/08/01 09:55:50;;;;;;;3.85;1.92;;;20.80;80.00;;;;;;5004748;28;20037;-66
2022/08/01 09:58:16;;;;;;;4.90;2.00;;;20.80;80.10;;;;;;5002769;28;20116;-66
2022/08/01 10:00:41;;;;;;;3.47;2.22;;;20.80;80.70;;;;;;5004103;28;20065;-66
2022/08/01 10:03:25;;;;;;;4.25;1.90;;;20.80;80.00;;;;;;5002946;28;20104;-66
2022/08/01 10:05:51;;;;;;;4.68;2.17;;;20.90;79.90;;;;;;5002262;28;20029;-66
2022/08/01 10:08:18;;;;;;;6.30;2.10;;;20.90;79.90;;;;;;5006015;28;20034;-66
2022/08/01 10:11:08;;;;;;;4.75;2.05;;;21.00;79.90;;;;;;5008058;28;20489;-66
2022/08/01 10:13:34;;;;;;;3.40;2.28;;;21.10;79.60;;;;;;5010665;28;20396;-66
2022/08/01 10:16:01;;;;;;;3.70;1.77;;;21.20;79.40;;;;;;5008437;28;20026;-66
2022/08/01 10:18:28;;;;;;;4.82;2.30;;;21.30;79.40;;;;;;5008575;28;20022;-66
2022/08/01 10:20:54;;;;;;;3.92;1.98;;;21.40;79.30;;;;;;5008439;28;20032;-66
2022/08/01 10:23:21;;;;;;;5.13;1.95;;;21.40;79.10;;;;;;5008518;28;20068;-66
2022/08/01 10:25:48;;;;;;;2.83;2.00;;;21.50;79.10;;;;;;5008019;28;20026;-66
2022/08/01 10:28:18;;;;;;;5.22;2.10;;;21.50;79.00;;;;;;5008783;28;20026;-66
2022/08/01 10:30:45;;;;;;;3.72;1.83;;;21.60;78.90;;;;;;5003731;28;20041;-66
2022/08/01 10:33:11;;;;;;;4.18;2.00;;;21.70;78.80;;;;;;5004840;28;20022;-66
2022/08/01 10:35:38;;;;;;;2.85;1.75;;;21.80;78.60;;;;;;5008514;28;20048;-66
2022/08/01 10:38:05;;;;;;;4.45;1.75;;;21.90;78.40;;;;;;5008327;28;20026;-66
2022/08/01 10:40:32;;;;;;;4.53;2.00;;;22.00;78.20;;;;;;5004706;28;20037;-66
2022/08/01 10:42:58;;;;;;;3.55;1.98;;;22.00;77.90;;;;;;5006755;28;20043;-66
2022/08/01 10:45:26;;;;;;;4.80;1.92;;;22.00;77.60;;;;;;5010822;28;20022;-66
2022/08/01 10:48:22;;;;;;;3.28;1.60;;;22.00;77.60;;;;;;5008429;28;20053;-66
2022/08/01 10:50:57;;;;;;;2.60;1.63;;;22.00;77.50;;;;;;5002937;28;20047;-66
2022/08/01 10:53:25;;;;;;;3.45;1.75;;;22.00;77.40;;;;;;5008499;28;20045;-66
2022/08/01 10:55:58;;;;;;;2.22;1.33;;;22.00;77.40;;;;;;5007364;28;20040;-67
2022/08/01 10:58:28;;;;;;;3.78;1.73;;;22.00;77.10;;;;;;5008462;28;20136;-67
2022/08/01 11:01:18;;;;;;;3.40;1.45;;;22.10;76.90;;;;;;5006613;28;20040;-66
2022/08/01 11:04:06;;;;;;;3.03;1.80;;;22.20;76.70;;;;;;5006806;28;20022;-67
2022/08/01 11:06:34;;;;;;;4.30;2.10;;;22.30;76.50;;;;;;5006433;28;20042;-66
2022/08/01 11:09:15;;;;;;;3.65;1.60;;;22.40;75.80;;;;;;5006664;28;20523;-66
2022/08/01 11:12:02;;;;;;;6.03;2.10;;;22.50;75.70;;;;;;5006714;28;20022;-66
2022/08/01 11:14:27;;;;;;;4.00;1.92;;;22.50;75.10;;;;;;5008081;28;20022;-67
2022/08/01 11:16:53;;;;;;;3.53;1.80;;;22.40;74.60;;;;;;5007879;28;20026;-67
2022/08/01 11:19:19;;;;;;;2.90;1.55;;;22.30;74.90;;;;;;5007272;28;20044;-68
2022/08/01 11:21:56;;;;;;;7.80;1.80;;;22.50;75.20;;;;;;5004589;28;20408;-67
2022/08/01 11:24:51;;;;;;;3.33;1.90;;;22.60;74.90;;;;;;5006836;28;20044;-67
2022/08/01 11:27:16;;;;;;;4.47;1.70;;;22.80;74.30;;;;;;5003800;28;20155;-68
2022/08/01 11:29:42;;;;;;;3.30;1.95;;;22.80;74.10;;;;;;5004301;28;20030;-67
2022/08/01 11:32:28;;;;;;;6.80;2.40;;;22.70;73.20;;;;;;5002950;28;20038;-67
2022/08/01 11:34:55;;;;;;;3.22;1.70;;;22.40;72.20;;;;;;5006634;28;20524;-67
2022/08/01 11:37:25;;;;;;;4.55;1.80;;;22.50;72.60;;;;;;5005402;28;20119;-68
2022/08/01 11:40:16;;;;;;;4.88;1.92;;;22.60;72.50;;;;;;5006193;28;20140;-68
2022/08/01 11:42:41;;;;;;;4.15;1.70;;;22.80;72.30;;;;;;5002983;28;20049;-68
2022/08/01 11:45:09;;;;;;;3.15;1.58;;;22.90;71.90;;;;;;5007079;28;20026;-68
2022/08/01 11:47:51;;;;;;;3.05;1.55;;;23.00;71.60;;;;;;5001286;28;20030;-67
2022/08/01 11:50:30;;;;;;;4.03;1.60;;;23.20;71.30;;;;;;5004007;28;20046;-67
2022/08/01 11:53:06;;;;;;;4.22;1.55;;;23.30;71.20;;;;;;5003605;28;20480;-68
2022/08/01 11:55:34;;;;;;;3.33;1.73;;;23.40;71.10;;;;;;5005621;28;20087;-68
2022/08/01 11:58:02;;;;;;;3.45;1.52;;;23.50;70.40;;;;;;5003505;28;20018;-67
2022/08/01 12:00:30;;;;;;;3.33;1.38;;;23.60;70.10;;;;;;5005361;28;20103;-67
2022/08/01 12:03:04;;;;;;;3.28;1.42;;;23.70;69.80;;;;;;5005453;28;20496;-68
2022/08/01 12:05:33;;;;;;;2.22;1.40;;;23.70;69.60;;;;;;5005312;28;20042;-67
2022/08/01 12:08:00;;;;;;;4.85;1.90;;;23.70;69.50;;;;;;5004112;28;20030;-67
2022/08/01 12:10:28;;;;;;;2.65;1.33;;;23.70;68.20;;;;;;5004633;28;20170;-67
2022/08/01 12:12:59;;;;;;;3.50;1.50;;;23.60;68.90;;;;;;5004534;28;20460;-67
2022/08/01 12:15:29;;;;;;;2.53;1.30;;;23.70;68.60;;;;;;5004787;28;20060;-67
2022/08/01 12:18:00;;;;;;;1.58;1.05;;;23.70;68.30;;;;;;5006047;28;20050;-67
2022/08/01 12:20:29;;;;;;;2.00;1.20;;;23.70;67.90;;;;;;5001861;28;20033;-67
2022/08/01 12:22:56;;;;;;;3.33;1.40;;;23.70;67.30;;;;;;5006814;28;20026;-67
2022/08/01 12:25:22;;;;;;;2.97;1.27;;;23.70;67.20;;;;;;5006644;28;20124;-67
2022/08/01 12:27:49;;;;;;;2.90;1.35;;;23.70;66.90;;;;;;5005953;28;20029;-68
2022/08/01 12:30:17;;;;;;;2.92;1.17;;;23.70;66.90;;;;;;5004217;28;20136;-68
2022/08/01 12:32:45;;;;;;;6.15;1.50;;;23.80;66.50;;;;;;5004765;28;20095;-67
2022/08/01 12:35:14;;;;;;;3.38;1.30;;;23.80;65.90;;;;;;5002887;28;20026;-67
2022/08/01 12:37:43;;;;;;;4.97;1.50;;;23.90;65.60;;;;;;5005830;28;20029;-67
2022/08/01 12:40:33;;;;;;;3.33;1.38;;;24.00;64.60;;;;;;5020623;28;20148;-67
2022/08/01 12:43:02;;;;;;;2.15;1.05;;;23.90;62.80;;;;;;5005395;28;20034;-67
2022/08/01 12:45:42;;;;;;;4.95;1.30;;;23.90;62.80;;;;;;5004597;28;20026;-68
2022/08/01 12:48:11;;;;;;;3.53;1.20;;;23.80;62.10;;;;;;5003815;28;20030;-68
2022/08/01 12:50:38;;;;;;;2.53;1.10;;;23.70;62.40;;;;;;5004111;28;20505;-67
2022/08/01 12:53:04;;;;;;;2.33;1.20;;;23.70;62.80;;;;;;5001844;28;20040;-67
2022/08/01 12:55:30;;;;;;;3.08;1.27;;;23.80;63.00;;;;;;5004091;28;20391;-67